KOMA/OMA METAR and TAF weather

Enter ICAO airport designator
Station Type Date Time Source
KOMA METAR 2019/08/18 09:52 UTC NOAA

KOMA 180952Z 09011G19KT 10SM -TSRA SCT050CB BKN100 22/19 A2972 RMK AO2 PK WND 02041/0925 WSHFT 0935 LTG DSNT N-E RAB37 TSE17B23 SLP054 CONS LTGICCC NE-NW TS NW-NE MOV SE P0000 T02170189


Station Type Date Time Source
KOMA Decoded METAR 2019/08/18 09:52 UTC NOAA

Station name not available
Aug 18, 2019 - 05:52 AM EDT / 2019.08.18 0952 UTC
Wind: from the E (090 degrees) at 13 MPH (11 KT) gusting to 22 MPH (19 KT):0
Visibility: 10 mile(s):0
Sky conditions: mostly cloudy
Weather: light rain with thunder; Cumulonimbus clouds, lightning observed
Precipitation last hour: A trace
Temperature: 71.1 F (21.7 C)
Dew Point: 66.0 F (18.9 C)
Relative Humidity: 84%
Pressure (altimeter): 29.72 in. Hg (1006 hPa)
ob: KOMA 180952Z 09011G19KT 10SM -TSRA SCT050CB BKN100 22/19 A2972 RMK AO2 PK WND 02041/0925 WSHFT 0935 LTG DSNT N-E RAB37 TSE17B23 SLP054 CONS LTGICCC NE-NW TS NW-NE MOV SE P0000 T02170189
cycle: 10

Station Type Date Time Source
KOMA TAF 2019/08/18 09:03 UTC NOAA

TAF
AMD KOMA 180901Z 1809/1906 18010KT P6SM VCTS BKN050CB WS020/23040KT
TEMPO 1809/1811 VRB10G20KT 6SM -TSRA BKN020CB
FM181300 33007KT P6SM BKN040
FM182100 35009KT P6SM SCT035

Example: see airport list